Time;durP1;ratioP1;P1;durP2;ratioP2;P2;SDS_P1;SDS_P2;PMS_P1;PMS_P2;Temp;Humidity;BMP_temperature;BMP_pressure;BME280_temperature;BME280_humidity;BME280_pressure;Samples;Min_cycle;Max_cycle;Signal;HPM_P1;HPM_P2
2022/01/19 00:01:39;;;;;;;2.30;1.23;;;;;;;;;;5058697;28;20560;-58
2022/01/19 00:04:05;;;;;;;1.58;0.80;;;;;;;;;;5059701;28;20016;-58
2022/01/19 00:06:31;;;;;;;2.03;1.27;;;;;;;;;;5060997;28;20396;-59
2022/01/19 00:08:57;;;;;;;2.35;1.17;;;;;;;;;;5058840;28;20029;-58
2022/01/19 00:11:23;;;;;;;3.58;1.27;;;;;;;;;;5059908;28;20020;-58
2022/01/19 00:13:50;;;;;;;2.13;1.10;;;;;;;;;;5060254;28;20100;-58
2022/01/19 00:16:16;;;;;;;1.70;0.80;;;;;;;;;;5058752;28;20075;-58
2022/01/19 00:18:42;;;;;;;1.60;1.10;;;;;;;;;;5056411;28;20039;-58
2022/01/19 00:21:08;;;;;;;3.55;1.25;;;;;;;;;;5058958;28;20111;-58
2022/01/19 00:23:34;;;;;;;2.33;1.30;;;;;;;;;;5061357;28;20423;-62
2022/01/19 00:26:00;;;;;;;3.13;1.40;;;;;;;;;;5063551;28;20028;-60
2022/01/19 00:28:27;;;;;;;2.47;1.00;;;;;;;;;;5063769;28;20021;-58
2022/01/19 00:30:53;;;;;;;3.40;0.95;;;;;;;;;;5061187;28;20163;-58
2022/01/19 00:33:20;;;;;;;1.25;1.00;;;;;;;;;;5063657;28;20013;-58
2022/01/19 00:35:46;;;;;;;2.10;1.48;;;;;;;;;;5062913;28;20021;-58
2022/01/19 00:38:12;;;;;;;2.10;1.02;;;;;;;;;;5061785;28;20052;-58
2022/01/19 00:40:39;;;;;;;1.67;1.25;;;;;;;;;;5063096;28;20362;-58
2022/01/19 00:43:05;;;;;;;1.65;0.93;;;;;;;;;;5063440;28;20024;-57
2022/01/19 00:45:32;;;;;;;2.45;1.27;;;;;;;;;;5062003;28;20510;-58
2022/01/19 00:47:58;;;;;;;2.28;1.27;;;;;;;;;;5062820;28;20027;-58
2022/01/19 00:50:25;;;;;;;1.40;1.13;;;;;;;;;;5063125;28;20029;-58
2022/01/19 00:52:52;;;;;;;2.05;1.20;;;;;;;;;;5061017;28;20036;-58
2022/01/19 00:55:19;;;;;;;1.30;1.13;;;;;;;;;;5063499;28;20024;-58
2022/01/19 00:57:45;;;;;;;1.52;1.10;;;;;;;;;;5062080;28;20079;-58
2022/01/19 01:00:13;;;;;;;2.85;1.02;;;;;;;;;;5044420;28;20486;-60
2022/01/19 01:02:39;;;;;;;1.77;0.98;;;;;;;;;;5061443;28;20029;-58
2022/01/19 01:05:05;;;;;;;2.13;0.98;;;;;;;;;;5063215;28;20025;-58
2022/01/19 01:07:33;;;;;;;1.83;1.08;;;;;;;;;;5062659;28;20033;-58
2022/01/19 01:10:00;;;;;;;1.67;1.02;;;;;;;;;;5064004;28;20017;-58
2022/01/19 01:12:43;;;;;;;5.25;1.30;;;;;;;;;;5061138;28;20029;-58
2022/01/19 01:20:35;;;;;;;1.63;0.80;;;;;;;;;;5062522;28;20040;-59
2022/01/19 01:23:01;;;;;;;2.55;1.33;;;;;;;;;;5061458;28;20017;-58
2022/01/19 01:25:27;;;;;;;0.90;0.70;;;;;;;;;;5044900;28;20056;-58
2022/01/19 01:27:54;;;;;;;1.90;1.00;;;;;;;;;;5060707;28;20028;-58
2022/01/19 01:30:20;;;;;;;1.67;1.13;;;;;;;;;;5063230;28;20028;-58
2022/01/19 01:32:47;;;;;;;1.52;1.20;;;;;;;;;;5060330;28;20021;-58
2022/01/19 01:35:13;;;;;;;3.53;1.20;;;;;;;;;;5061111;28;20025;-58
2022/01/19 01:37:39;;;;;;;4.07;1.08;;;;;;;;;;5062059;28;20049;-58
2022/01/19 01:40:07;;;;;;;1.50;0.80;;;;;;;;;;5062828;28;20028;-58
2022/01/19 01:42:34;;;;;;;1.40;0.98;;;;;;;;;;5062083;28;20025;-61
2022/01/19 01:45:01;;;;;;;1.85;1.02;;;;;;;;;;5060540;28;20021;-57
2022/01/19 01:47:28;;;;;;;1.33;0.90;;;;;;;;;;5062226;28;20095;-58
2022/01/19 01:55:11;;;;;;;1.50;1.00;;;;;;;;;;5061171;28;20033;-58
2022/01/19 01:57:37;;;;;;;1.42;0.77;;;;;;;;;;5059782;28;20028;-61
2022/01/19 02:00:06;;;;;;;3.00;1.15;;;;;;;;;;5062171;28;20033;-58
2022/01/19 02:02:32;;;;;;;2.67;1.10;;;;;;;;;;5061400;28;20033;-60
2022/01/19 02:04:58;;;;;;;2.20;1.08;;;;;;;;;;5060128;28;20090;-58
2022/01/19 02:09:59;;;;;;;3.28;1.35;;;;;;;;;;5064331;28;20846;-58
2022/01/19 02:23:28;;;;;;;2.17;1.30;;;;;;;;;;5060022;28;20024;-56
2022/01/19 02:25:56;;;;;;;2.38;1.20;;;;;;;;;;5059979;28;20112;-58
2022/01/19 02:41:45;;;;;;;3.28;1.38;;;;;;;;;;5059037;28;20075;-58
2022/01/19 02:44:15;;;;;;;1.40;0.90;;;;;;;;;;5060705;28;20059;-58
2022/01/19 02:49:14;;;;;;;1.15;0.70;;;;;;;;;;5061239;28;20032;-58
2022/01/19 02:49:39;;;;;;;1.20;0.80;;;;;;;;;;5060471;28;20025;-58
2022/01/19 02:52:06;;;;;;;2.15;1.10;;;;;;;;;;5057307;28;20021;-58
2022/01/19 02:54:33;;;;;;;3.05;1.10;;;;;;;;;;5060396;28;20108;-58
2022/01/19 02:57:01;;;;;;;2.55;1.20;;;;;;;;;;5043236;28;20032;-59
2022/01/19 02:59:44;;;;;;;2.38;0.80;;;;;;;;;;5060179;28;20025;-58
2022/01/19 03:10:23;;;;;;;1.45;1.10;;;;;;;;;;5061341;28;20067;-58
2022/01/19 03:12:49;;;;;;;1.92;1.10;;;;;;;;;;5055842;28;20048;-57
2022/01/19 03:15:16;;;;;;;2.13;1.30;;;;;;;;;;5060517;28;20059;-58
2022/01/19 03:17:42;;;;;;;2.25;0.82;;;;;;;;;;5058468;28;20095;-58
2022/01/19 03:20:09;;;;;;;2.08;1.00;;;;;;;;;;5058947;28;20017;-58
2022/01/19 03:22:42;;;;;;;3.03;1.10;;;;;;;;;;5071314;28;20037;-63
2022/01/19 03:25:12;;;;;;;2.17;1.00;;;;;;;;;;5061276;28;20021;-59
2022/01/19 03:27:39;;;;;;;2.50;1.00;;;;;;;;;;5050594;28;20078;-60
2022/01/19 03:30:06;;;;;;;1.98;1.10;;;;;;;;;;5051447;28;20056;-54
2022/01/19 03:32:32;;;;;;;3.67;0.85;;;;;;;;;;5051040;28;20386;-54
2022/01/19 03:34:58;;;;;;;1.73;0.90;;;;;;;;;;5050607;28;20032;-55
2022/01/19 03:37:24;;;;;;;1.88;1.15;;;;;;;;;;5051579;28;20470;-58
2022/01/19 03:39:50;;;;;;;2.20;1.08;;;;;;;;;;5050677;28;20061;-60
2022/01/19 03:42:16;;;;;;;1.85;0.95;;;;;;;;;;5051758;28;20036;-58
2022/01/19 03:44:43;;;;;;;2.42;1.13;;;;;;;;;;5050452;28;20025;-58
2022/01/19 03:47:09;;;;;;;1.63;1.10;;;;;;;;;;5051481;28;20028;-58
2022/01/19 03:49:36;;;;;;;2.08;1.05;;;;;;;;;;5051279;28;20029;-62
2022/01/19 03:52:03;;;;;;;1.80;1.10;;;;;;;;;;5051038;28;20021;-58
2022/01/19 03:54:30;;;;;;;2.33;1.27;;;;;;;;;;5051221;28;20029;-58
2022/01/19 03:56:56;;;;;;;1.45;1.17;;;;;;;;;;5050659;28;20016;-58
2022/01/19 03:59:23;;;;;;;1.95;0.88;;;;;;;;;;5053768;28;20021;-57
2022/01/19 04:01:52;;;;;;;2.38;1.10;;;;;;;;;;5054392;28;20448;-57
2022/01/19 04:09:16;;;;;;;1.15;1.02;;;;;;;;;;5073535;28;20031;-57
2022/01/19 04:11:42;;;;;;;1.48;0.90;;;;;;;;;;5074292;28;20480;-58
2022/01/19 04:14:27;;;;;;;2.05;1.08;;;;;;;;;;5074802;28;20044;-58
2022/01/19 04:16:57;;;;;;;3.40;1.20;;;;;;;;;;5074069;28;20382;-58
2022/01/19 04:21:53;;;;;;;1.55;1.10;;;;;;;;;;5073478;28;20124;-58
2022/01/19 04:24:19;;;;;;;1.40;0.90;;;;;;;;;;5070799;28;20528;-58
2022/01/19 04:26:50;;;;;;;1.38;0.82;;;;;;;;;;5053973;28;20044;-58
2022/01/19 04:29:16;;;;;;;1.73;1.00;;;;;;;;;;5054460;28;20024;-57
2022/01/19 04:31:42;;;;;;;1.42;1.33;;;;;;;;;;5053709;28;20482;-58
2022/01/19 04:34:12;;;;;;;2.22;1.10;;;;;;;;;;5054413;28;20552;-58
2022/01/19 04:43:52;;;;;;;2.88;0.95;;;;;;;;;;5054806;28;20033;-58
2022/01/19 04:48:14;;;;;;;1.45;0.95;;;;;;;;;;5053624;28;20033;-59
2022/01/19 05:06:43;;;;;;;1.20;1.00;;;;;;;;;;5073429;28;20120;-61
2022/01/19 05:09:57;;;;;;;3.00;1.08;;;;;;;;;;5074189;28;20036;-58
2022/01/19 05:14:40;;;;;;;2.05;1.10;;;;;;;;;;5073068;28;20063;-62
2022/01/19 05:17:06;;;;;;;1.88;1.33;;;;;;;;;;5073347;28;20032;-58
2022/01/19 05:19:32;;;;;;;1.83;1.30;;;;;;;;;;5055918;28;20032;-62
2022/01/19 05:21:58;;;;;;;2.45;1.52;;;;;;;;;;5072489;28;20060;-48
2022/01/19 05:24:24;;;;;;;2.03;0.95;;;;;;;;;;5069445;28;20024;-49
2022/01/19 05:26:51;;;;;;;1.85;1.10;;;;;;;;;;5052832;28;20033;-49
2022/01/19 05:29:17;;;;;;;1.80;1.10;;;;;;;;;;5053826;28;20029;-49
2022/01/19 05:31:43;;;;;;;2.22;1.13;;;;;;;;;;5052418;28;20029;-58
2022/01/19 05:34:09;;;;;;;1.60;1.30;;;;;;;;;;5053518;28;20055;-54
2022/01/19 05:36:35;;;;;;;3.35;1.23;;;;;;;;;;5053048;28;20056;-57
2022/01/19 05:39:04;;;;;;;2.30;1.48;;;;;;;;;;5052228;28;20528;-55
2022/01/19 05:41:31;;;;;;;1.73;1.10;;;;;;;;;;5053005;28;20480;-56
2022/01/19 05:43:57;;;;;;;1.75;0.88;;;;;;;;;;5052460;28;20021;-59
2022/01/19 05:46:23;;;;;;;2.30;1.20;;;;;;;;;;5053000;28;20021;-58
2022/01/19 05:48:49;;;;;;;2.17;1.15;;;;;;;;;;5052420;28;20028;-58
2022/01/19 05:51:15;;;;;;;3.90;1.15;;;;;;;;;;5053251;28;20033;-58
2022/01/19 05:53:41;;;;;;;2.50;1.17;;;;;;;;;;5052961;28;20029;-62
2022/01/19 05:56:08;;;;;;;1.60;1.20;;;;;;;;;;5060050;28;20032;-58
2022/01/19 05:58:34;;;;;;;1.63;1.00;;;;;;;;;;5072450;28;20036;-59
2022/01/19 06:01:00;;;;;;;2.60;1.25;;;;;;;;;;5072180;28;20035;-58
2022/01/19 06:03:26;;;;;;;1.77;1.20;;;;;;;;;;5072751;28;20477;-58
2022/01/19 06:05:52;;;;;;;3.90;1.73;;;;;;;;;;5071722;28;20059;-58
2022/01/19 06:08:42;;;;;;;3.20;1.33;;;;;;;;;;5064367;28;20036;-58
2022/01/19 06:11:05;;;;;;;1.90;1.30;;;;;;;;;;5063373;28;20032;-58
2022/01/19 06:13:31;;;;;;;1.60;0.90;;;;;;;;;;5073004;28;20028;-57
2022/01/19 06:15:57;;;;;;;2.47;1.40;;;;;;;;;;5071786;28;20068;-56
2022/01/19 06:18:23;;;;;;;1.50;1.10;;;;;;;;;;5072174;28;20052;-58
2022/01/19 06:20:49;;;;;;;3.60;1.10;;;;;;;;;;5072018;28;20104;-56
2022/01/19 06:23:15;;;;;;;3.35;1.65;;;;;;;;;;5071967;28;20111;-55
2022/01/19 06:25:41;;;;;;;1.17;1.02;;;;;;;;;;5039292;28;20033;-62
2022/01/19 06:28:08;;;;;;;2.08;1.15;;;;;;;;;;5051913;28;20535;-57
2022/01/19 06:30:34;;;;;;;5.50;1.52;;;;;;;;;;5052333;28;20033;-58
2022/01/19 06:33:00;;;;;;;1.77;1.38;;;;;;;;;;5051715;28;20458;-58
2022/01/19 06:35:26;;;;;;;5.22;1.35;;;;;;;;;;5041432;28;20031;-58
2022/01/19 06:37:52;;;;;;;3.47;1.27;;;;;;;;;;5057217;28;20245;-60
2022/01/19 06:40:19;;;;;;;4.80;2.05;;;;;;;;;;5051292;28;20020;-60
2022/01/19 06:42:45;;;;;;;3.53;1.25;;;;;;;;;;5073445;28;20024;-59
2022/01/19 06:45:12;;;;;;;1.77;1.10;;;;;;;;;;5072902;28;20153;-58
2022/01/19 06:47:38;;;;;;;2.42;1.20;;;;;;;;;;5071945;28;20086;-58
2022/01/19 06:50:05;;;;;;;5.28;1.30;;;;;;;;;;5066646;28;20155;-51
2022/01/19 06:52:31;;;;;;;6.45;2.10;;;;;;;;;;5071599;28;20013;-47
2022/01/19 06:54:57;;;;;;;6.45;1.50;;;;;;;;;;5052965;28;20028;-45
2022/01/19 06:57:23;;;;;;;3.33;1.10;;;;;;;;;;5071823;28;20028;-48
2022/01/19 06:59:51;;;;;;;4.63;1.13;;;;;;;;;;5065002;28;20044;-52
2022/01/19 07:02:17;;;;;;;2.80;1.65;;;;;;;;;;5060044;28;20027;-48
2022/01/19 07:04:48;;;;;;;12.45;1.58;;;;;;;;;;5062222;28;20028;-57
2022/01/19 07:07:15;;;;;;;3.47;1.27;;;;;;;;;;5062639;28;20021;-57
2022/01/19 07:09:41;;;;;;;3.35;1.33;;;;;;;;;;5066583;28;20078;-59
2022/01/19 07:12:07;;;;;;;3.92;1.30;;;;;;;;;;5067466;28;20017;-57
2022/01/19 07:14:33;;;;;;;2.58;1.17;;;;;;;;;;5057010;28;20021;-57
2022/01/19 07:16:59;;;;;;;2.22;1.48;;;;;;;;;;5091050;28;20027;-57
2022/01/19 07:19:25;;;;;;;2.38;1.10;;;;;;;;;;5090138;28;20480;-57
2022/01/19 07:21:51;;;;;;;3.00;1.40;;;;;;;;;;5091581;28;20039;-56
2022/01/19 07:24:17;;;;;;;4.38;1.45;;;;;;;;;;5088784;28;20021;-59
2022/01/19 07:26:43;;;;;;;3.05;1.60;;;;;;;;;;5071304;28;20032;-57
2022/01/19 07:29:09;;;;;;;4.70;1.48;;;;;;;;;;5071582;28;20478;-58
2022/01/19 07:31:35;;;;;;;4.68;1.70;;;;;;;;;;5068382;28;20034;-58
2022/01/19 07:34:01;;;;;;;9.25;2.00;;;;;;;;;;5061513;28;20024;-57
2022/01/19 07:36:29;;;;;;;3.53;1.40;;;;;;;;;;5066251;28;20048;-57
2022/01/19 07:38:55;;;;;;;2.88;1.42;;;;;;;;;;5070098;28;20055;-57
2022/01/19 07:41:21;;;;;;;3.67;1.10;;;;;;;;;;5075738;28;20403;-57
2022/01/19 07:43:47;;;;;;;3.10;1.27;;;;;;;;;;5071038;28;20066;-58
2022/01/19 07:46:13;;;;;;;2.17;1.05;;;;;;;;;;5037592;28;20029;-60
2022/01/19 07:48:39;;;;;;;5.07;1.63;;;;;;;;;;5055180;28;20524;-59
2022/01/19 07:51:05;;;;;;;3.30;1.35;;;;;;;;;;5063143;28;20028;-58
2022/01/19 07:53:31;;;;;;;3.70;1.23;;;;;;;;;;5069539;28;20079;-59
2022/01/19 07:55:57;;;;;;;4.80;1.50;;;;;;;;;;5074320;28;20060;-58
2022/01/19 07:58:23;;;;;;;2.00;1.20;;;;;;;;;;5074526;28;20056;-58
2022/01/19 08:00:49;;;;;;;6.20;1.75;;;;;;;;;;5074588;28;20049;-58
2022/01/19 08:03:15;;;;;;;3.13;1.38;;;;;;;;;;5070724;28;20488;-58
2022/01/19 08:05:41;;;;;;;2.08;1.48;;;;;;;;;;5075709;28;20101;-58
2022/01/19 08:08:07;;;;;;;2.05;1.20;;;;;;;;;;5075336;28;20025;-58
2022/01/19 08:10:33;;;;;;;2.53;1.30;;;;;;;;;;5075119;28;20017;-58
2022/01/19 08:13:02;;;;;;;3.45;1.67;;;;;;;;;;5074202;28;20111;-58
2022/01/19 08:15:29;;;;;;;5.22;1.63;;;;;;;;;;5075398;28;20035;-58
2022/01/19 08:17:55;;;;;;;3.80;1.30;;;;;;;;;;5094654;28;20127;-58
2022/01/19 08:20:21;;;;;;;3.08;1.48;;;;;;;;;;5095378;28;20085;-58
2022/01/19 08:22:47;;;;;;;3.50;1.02;;;;;;;;;;5094655;28;20103;-59
2022/01/19 08:25:13;;;;;;;3.78;1.30;;;;;;;;;;5083975;28;20029;-58
2022/01/19 08:27:39;;;;;;;4.22;1.35;;;;;;;;;;5074550;28;20104;-58
2022/01/19 08:30:06;;;;;;;3.22;1.35;;;;;;;;;;5074081;28;20410;-58
2022/01/19 08:32:35;;;;;;;3.63;1.42;;;;;;;;;;5074853;28;20025;-59
2022/01/19 08:35:01;;;;;;;3.08;1.40;;;;;;;;;;5074007;28;20037;-59
2022/01/19 08:37:27;;;;;;;2.88;1.40;;;;;;;;;;5072032;28;20049;-58
2022/01/19 08:39:53;;;;;;;2.30;1.25;;;;;;;;;;5071849;28;20050;-58
2022/01/19 08:42:19;;;;;;;3.85;1.63;;;;;;;;;;5074504;28;20024;-58
2022/01/19 08:44:45;;;;;;;5.32;1.50;;;;;;;;;;5073618;28;20020;-58
2022/01/19 08:47:11;;;;;;;2.65;1.30;;;;;;;;;;5074449;28;20020;-58
2022/01/19 08:49:37;;;;;;;2.72;1.40;;;;;;;;;;5074454;28;20021;-58
2022/01/19 08:52:04;;;;;;;2.33;1.20;;;;;;;;;;5073717;28;20094;-59
2022/01/19 08:54:30;;;;;;;3.92;1.63;;;;;;;;;;5074162;28;20020;-58
2022/01/19 08:56:57;;;;;;;2.08;1.08;;;;;;;;;;5073625;28;20025;-58
2022/01/19 08:59:23;;;;;;;3.78;2.00;;;;;;;;;;5074433;28;20072;-58
2022/01/19 09:01:49;;;;;;;2.22;1.27;;;;;;;;;;5073722;28;20029;-59
2022/01/19 09:04:15;;;;;;;2.30;1.45;;;;;;;;;;5073896;28;20105;-58
2022/01/19 09:06:41;;;;;;;2.90;1.33;;;;;;;;;;5074499;28;20158;-58
2022/01/19 09:09:06;;;;;;;3.13;1.52;;;;;;;;;;5072931;28;20473;-58
2022/01/19 09:11:32;;;;;;;2.10;1.20;;;;;;;;;;5073823;28;20024;-58
2022/01/19 09:14:00;;;;;;;2.10;1.10;;;;;;;;;;5072786;28;20366;-58
2022/01/19 09:16:26;;;;;;;2.15;1.17;;;;;;;;;;5073863;28;20024;-58
2022/01/19 09:18:52;;;;;;;1.83;1.10;;;;;;;;;;5073475;28;20040;-58
2022/01/19 09:21:18;;;;;;;1.45;0.88;;;;;;;;;;5073865;28;20020;-58
2022/01/19 09:23:44;;;;;;;3.03;1.80;;;;;;;;;;5073217;28;20048;-58
2022/01/19 09:26:10;;;;;;;1.63;1.10;;;;;;;;;;5055129;28;20103;-58
2022/01/19 09:28:36;;;;;;;1.83;1.13;;;;;;;;;;5053458;28;20048;-58
2022/01/19 09:31:10;;;;;;;3.72;1.50;;;;;;;;;;5053189;28;20037;-58
2022/01/19 09:33:36;;;;;;;2.17;1.30;;;;;;;;;;5066786;28;20021;-58
2022/01/19 09:38:32;;;;;;;2.17;1.45;;;;;;;;;;5073729;28;20048;-58
2022/01/19 09:40:59;;;;;;;1.70;1.58;;;;;;;;;;5072906;28;20074;-58
2022/01/19 09:43:25;;;;;;;3.65;1.42;;;;;;;;;;5073401;28;20412;-58
2022/01/19 09:45:53;;;;;;;3.35;1.40;;;;;;;;;;5072579;28;20024;-58
2022/01/19 09:48:19;;;;;;;2.58;1.20;;;;;;;;;;5073177;28;20031;-58
2022/01/19 09:50:45;;;;;;;2.42;1.58;;;;;;;;;;5072878;28;20054;-58
2022/01/19 09:53:11;;;;;;;1.80;1.02;;;;;;;;;;5072859;28;20027;-59
2022/01/19 09:55:38;;;;;;;1.98;1.00;;;;;;;;;;5072742;28;20029;-58
2022/01/19 09:58:04;;;;;;;1.60;1.00;;;;;;;;;;5071535;28;20097;-58
2022/01/19 10:00:30;;;;;;;1.98;1.10;;;;;;;;;;5072847;28;20038;-58
2022/01/19 10:03:15;;;;;;;2.47;1.10;;;;;;;;;;5072500;28;20031;-58
2022/01/19 10:05:54;;;;;;;3.45;1.50;;;;;;;;;;5054937;28;20024;-59
2022/01/19 10:08:43;;;;;;;2.80;1.15;;;;;;;;;;5072833;28;20028;-58
2022/01/19 10:11:21;;;;;;;2.22;1.20;;;;;;;;;;5054875;28;20036;-58
2022/01/19 10:19:20;;;;;;;4.38;2.20;;;;;;;;;;5072633;28;20073;-58
2022/01/19 10:21:56;;;;;;;2.25;1.30;;;;;;;;;;5071825;28;20024;-59
2022/01/19 10:24:34;;;;;;;2.97;1.17;;;;;;;;;;5068284;28;20352;-58
2022/01/19 10:27:19;;;;;;;2.53;1.20;;;;;;;;;;5058547;28;20048;-58
2022/01/19 10:29:45;;;;;;;2.60;0.93;;;;;;;;;;5071879;28;20033;-58
2022/01/19 10:32:11;;;;;;;2.65;1.40;;;;;;;;;;5071626;28;20029;-58
2022/01/19 10:34:37;;;;;;;3.88;1.40;;;;;;;;;;5071973;28;20059;-58
2022/01/19 10:37:05;;;;;;;1.70;1.13;;;;;;;;;;5071265;28;20072;-58
2022/01/19 10:39:40;;;;;;;1.70;1.23;;;;;;;;;;5072202;28;20032;-58
2022/01/19 10:42:16;;;;;;;2.17;1.35;;;;;;;;;;5071231;28;20035;-58
2022/01/19 10:44:43;;;;;;;2.38;1.30;;;;;;;;;;5071432;28;20115;-59
2022/01/19 10:47:12;;;;;;;2.53;1.13;;;;;;;;;;5071092;28;20082;-58
2022/01/19 10:49:53;;;;;;;2.60;1.23;;;;;;;;;;5072022;28;20070;-59
2022/01/19 10:52:40;;;;;;;4.60;1.52;;;;;;;;;;5071972;28;20032;-58
2022/01/19 10:55:26;;;;;;;3.47;1.73;;;;;;;;;;5071226;28;20274;-58
2022/01/19 10:57:52;;;;;;;1.58;1.10;;;;;;;;;;5054272;28;20505;-58
2022/01/19 11:00:21;;;;;;;1.55;1.20;;;;;;;;;;5071715;28;20082;-58
2022/01/19 11:02:48;;;;;;;1.52;1.10;;;;;;;;;;5071583;28;20353;-58
2022/01/19 11:05:14;;;;;;;2.45;1.05;;;;;;;;;;5071607;28;20028;-57
2022/01/19 11:07:40;;;;;;;1.58;1.00;;;;;;;;;;5071078;28;20032;-58
2022/01/19 11:12:48;;;;;;;2.33;1.10;;;;;;;;;;5071749;28;20024;-58
2022/01/19 11:15:15;;;;;;;1.25;1.15;;;;;;;;;;5071077;28;20035;-59
2022/01/19 11:17:42;;;;;;;1.98;1.30;;;;;;;;;;5071595;28;20028;-58
2022/01/19 11:20:13;;;;;;;2.13;1.38;;;;;;;;;;5048252;28;20021;-58
2022/01/19 11:22:57;;;;;;;3.03;1.38;;;;;;;;;;5052586;28;20032;-58
2022/01/19 11:25:33;;;;;;;2.65;1.27;;;;;;;;;;5063902;28;20038;-58
2022/01/19 11:27:59;;;;;;;2.67;1.30;;;;;;;;;;5070658;28;20116;-58
2022/01/19 11:30:26;;;;;;;1.65;1.17;;;;;;;;;;5071504;28;20082;-58
2022/01/19 11:33:11;;;;;;;3.10;1.00;;;;;;;;;;5070440;28;20385;-59
2022/01/19 11:35:37;;;;;;;1.88;1.27;;;;;;;;;;5070973;28;20478;-58
2022/01/19 11:38:23;;;;;;;5.13;1.98;;;;;;;;;;5070161;28;20037;-59
2022/01/19 11:40:49;;;;;;;2.35;1.35;;;;;;;;;;5071157;28;20020;-59
2022/01/19 11:43:19;;;;;;;2.53;1.40;;;;;;;;;;5071113;28;20024;-58
2022/01/19 11:45:45;;;;;;;1.80;1.20;;;;;;;;;;5070748;28;20024;-58
2022/01/19 11:48:16;;;;;;;3.65;1.40;;;;;;;;;;5070331;28;20024;-58
2022/01/19 11:50:42;;;;;;;2.80;1.90;;;;;;;;;;5071622;28;20029;-58
2022/01/19 11:53:10;;;;;;;2.50;1.50;;;;;;;;;;5070605;28;20086;-58
2022/01/19 11:55:37;;;;;;;2.08;1.33;;;;;;;;;;5071236;28;20064;-59
2022/01/19 11:58:15;;;;;;;4.28;1.60;;;;;;;;;;5070172;28;20033;-58
2022/01/19 12:00:42;;;;;;;2.13;1.30;;;;;;;;;;5070946;28;20035;-58
2022/01/19 12:03:23;;;;;;;3.85;1.48;;;;;;;;;;5070213;28;20108;-59
2022/01/19 12:05:51;;;;;;;1.95;1.10;;;;;;;;;;5070899;28;20107;-59
2022/01/19 12:08:25;;;;;;;1.83;1.20;;;;;;;;;;5071155;28;20028;-58
2022/01/19 12:10:55;;;;;;;2.28;1.55;;;;;;;;;;5070220;28;20020;-58
2022/01/19 12:19:01;;;;;;;3.25;1.38;;;;;;;;;;5050311;28;20040;-58
2022/01/19 12:21:36;;;;;;;1.95;1.20;;;;;;;;;;5054578;28;20031;-58
2022/01/19 12:24:26;;;;;;;2.85;1.48;;;;;;;;;;5054628;28;20056;-58
2022/01/19 12:27:09;;;;;;;4.28;1.77;;;;;;;;;;5074022;28;20063;-59
2022/01/19 12:29:36;;;;;;;2.00;1.23;;;;;;;;;;5056555;28;20427;-58
2022/01/19 12:32:02;;;;;;;1.83;1.10;;;;;;;;;;5073540;28;20048;-58
2022/01/19 12:34:42;;;;;;;2.42;1.08;;;;;;;;;;5074529;28;20472;-58
2022/01/19 12:37:09;;;;;;;2.40;1.17;;;;;;;;;;5073619;28;20043;-58
2022/01/19 12:39:44;;;;;;;3.22;1.40;;;;;;;;;;5074453;28;20361;-58
2022/01/19 12:42:39;;;;;;;2.85;1.48;;;;;;;;;;5073686;28;20016;-58
2022/01/19 12:45:16;;;;;;;2.78;1.00;;;;;;;;;;5055671;28;20028;-59
2022/01/19 12:47:43;;;;;;;1.92;1.20;;;;;;;;;;5056675;28;20134;-58
2022/01/19 12:50:09;;;;;;;1.95;1.20;;;;;;;;;;5087314;28;20056;-58
2022/01/19 12:52:49;;;;;;;2.53;1.42;;;;;;;;;;5081599;28;20020;-58
2022/01/19 12:55:33;;;;;;;2.60;1.02;;;;;;;;;;5074757;28;20031;-58
2022/01/19 12:57:59;;;;;;;2.28;1.02;;;;;;;;;;5073544;28;20127;-58
2022/01/19 13:00:27;;;;;;;2.65;1.20;;;;;;;;;;5074037;28;20055;-58
2022/01/19 13:02:53;;;;;;;1.42;1.00;;;;;;;;;;5072879;28;20404;-58
2022/01/19 13:05:20;;;;;;;1.33;1.08;;;;;;;;;;5073999;28;20115;-58
2022/01/19 13:07:53;;;;;;;2.75;1.20;;;;;;;;;;5074035;28;20044;-58
2022/01/19 13:15:50;;;;;;;1.92;1.05;;;;;;;;;;5073432;28;20028;-58
2022/01/19 13:18:37;;;;;;;2.10;1.13;;;;;;;;;;5073596;28;20031;-58
2022/01/19 13:21:14;;;;;;;1.10;0.90;;;;;;;;;;5073575;28;20028;-58
2022/01/19 13:24:00;;;;;;;2.13;1.40;;;;;;;;;;5073968;28;20020;-58
2022/01/19 13:26:36;;;;;;;2.03;1.10;;;;;;;;;;5053719;28;20429;-58
2022/01/19 13:29:12;;;;;;;1.77;1.00;;;;;;;;;;5053863;28;20086;-58
2022/01/19 13:31:38;;;;;;;1.75;1.20;;;;;;;;;;5053081;28;20168;-58
2022/01/19 13:34:04;;;;;;;2.92;1.17;;;;;;;;;;5052969;28;20033;-58
2022/01/19 13:36:35;;;;;;;2.08;1.30;;;;;;;;;;5053571;28;20028;-58
2022/01/19 13:39:01;;;;;;;1.75;1.63;;;;;;;;;;5053611;28;20036;-58
2022/01/19 13:41:28;;;;;;;1.45;1.05;;;;;;;;;;5054132;28;20095;-58
2022/01/19 13:44:02;;;;;;;1.48;1.05;;;;;;;;;;5036919;28;20025;-58
2022/01/19 13:46:30;;;;;;;1.75;1.00;;;;;;;;;;5073739;28;20349;-58
2022/01/19 13:48:58;;;;;;;2.10;1.27;;;;;;;;;;5072763;28;20449;-58
2022/01/19 13:51:26;;;;;;;1.67;1.10;;;;;;;;;;5073567;28;20039;-58
2022/01/19 13:53:53;;;;;;;1.85;1.15;;;;;;;;;;5072879;28;20021;-58
2022/01/19 13:56:30;;;;;;;2.30;0.82;;;;;;;;;;5072945;28;20017;-58
2022/01/19 13:58:59;;;;;;;1.35;0.90;;;;;;;;;;5072259;28;20032;-58
2022/01/19 14:01:40;;;;;;;1.90;1.00;;;;;;;;;;5073306;28;20016;-60
2022/01/19 14:04:07;;;;;;;3.70;1.00;;;;;;;;;;5058083;28;20021;-58
2022/01/19 14:06:36;;;;;;;3.25;1.08;;;;;;;;;;5053072;28;20029;-58
2022/01/19 14:09:11;;;;;;;2.50;1.10;;;;;;;;;;5052518;28;20052;-58
2022/01/19 14:11:38;;;;;;;1.73;0.98;;;;;;;;;;5053119;28;20159;-58
2022/01/19 14:14:05;;;;;;;1.25;1.05;;;;;;;;;;5055163;28;20020;-58
2022/01/19 14:16:37;;;;;;;2.70;1.45;;;;;;;;;;5055376;28;20033;-58
2022/01/19 14:19:09;;;;;;;2.85;1.48;;;;;;;;;;5072346;28;20107;-59
2022/01/19 14:21:52;;;;;;;3.80;1.52;;;;;;;;;;5073034;28;20017;-58
2022/01/19 14:24:18;;;;;;;2.38;1.23;;;;;;;;;;5069592;28;20013;-58
2022/01/19 14:26:55;;;;;;;1.90;0.93;;;;;;;;;;5053329;28;20357;-58
2022/01/19 14:29:22;;;;;;;1.98;1.05;;;;;;;;;;5052538;28;20481;-58
2022/01/19 14:31:52;;;;;;;2.03;1.10;;;;;;;;;;5053048;28;20032;-56
2022/01/19 14:34:34;;;;;;;1.67;1.10;;;;;;;;;;5052649;28;20408;-58
2022/01/19 14:37:08;;;;;;;1.30;0.80;;;;;;;;;;5051836;28;20049;-59
2022/01/19 14:39:44;;;;;;;1.27;0.88;;;;;;;;;;5052816;28;20052;-58
2022/01/19 14:42:10;;;;;;;2.00;1.20;;;;;;;;;;5051995;28;20056;-58
2022/01/19 14:44:41;;;;;;;1.30;0.95;;;;;;;;;;5060051;28;20395;-58
2022/01/19 14:47:25;;;;;;;1.97;1.27;;;;;;;;;;5063869;28;20082;-58
2022/01/19 14:49:51;;;;;;;1.90;1.60;;;;;;;;;;5071978;28;20024;-58
2022/01/19 14:52:17;;;;;;;1.88;1.20;;;;;;;;;;5072207;28;20461;-58
2022/01/19 14:54:43;;;;;;;6.07;1.33;;;;;;;;;;5071933;28;20059;-58
2022/01/19 14:57:09;;;;;;;1.65;1.00;;;;;;;;;;5062417;28;20056;-58
2022/01/19 14:59:36;;;;;;;1.85;1.13;;;;;;;;;;5061982;28;20048;-58
2022/01/19 15:02:03;;;;;;;2.42;1.20;;;;;;;;;;5061435;28;20345;-58
2022/01/19 15:04:29;;;;;;;1.58;1.25;;;;;;;;;;5071024;28;20021;-57
2022/01/19 15:07:00;;;;;;;2.55;1.17;;;;;;;;;;5071370;28;20529;-57
2022/01/19 15:09:26;;;;;;;3.90;1.02;;;;;;;;;;5072385;28;20016;-57
2022/01/19 15:11:52;;;;;;;2.15;1.00;;;;;;;;;;5071554;28;20471;-58
2022/01/19 15:14:18;;;;;;;2.55;1.20;;;;;;;;;;5072119;28;20051;-57
2022/01/19 15:16:45;;;;;;;1.45;1.15;;;;;;;;;;5072096;28;20028;-58
2022/01/19 15:19:11;;;;;;;2.55;1.17;;;;;;;;;;5071694;28;20031;-57
2022/01/19 15:21:37;;;;;;;1.83;1.00;;;;;;;;;;5072038;28;20052;-57
2022/01/19 15:24:04;;;;;;;3.42;1.60;;;;;;;;;;5070206;28;20074;-58
2022/01/19 15:26:31;;;;;;;2.08;1.25;;;;;;;;;;5051780;28;20537;-57
2022/01/19 15:28:59;;;;;;;2.30;1.20;;;;;;;;;;5051175;28;20025;-58
2022/01/19 15:31:25;;;;;;;1.38;0.98;;;;;;;;;;5052141;28;20025;-57
2022/01/19 15:33:51;;;;;;;1.55;0.85;;;;;;;;;;5051547;28;20458;-58
2022/01/19 15:36:17;;;;;;;1.98;1.25;;;;;;;;;;5051699;28;20059;-57
2022/01/19 15:38:45;;;;;;;2.53;1.52;;;;;;;;;;5051629;28;20060;-57
2022/01/19 15:41:12;;;;;;;1.58;1.13;;;;;;;;;;5051335;28;20366;-57
2022/01/19 15:43:38;;;;;;;3.78;1.17;;;;;;;;;;5054490;28;20025;-58
2022/01/19 15:46:04;;;;;;;1.98;1.10;;;;;;;;;;5070957;28;20038;-57
2022/01/19 15:48:31;;;;;;;3.15;1.65;;;;;;;;;;5062359;28;20365;-57
2022/01/19 15:50:59;;;;;;;2.03;1.30;;;;;;;;;;5060849;28;20032;-58
2022/01/19 15:53:26;;;;;;;2.78;0.95;;;;;;;;;;5052315;28;20021;-57
2022/01/19 15:55:55;;;;;;;1.40;1.27;;;;;;;;;;5053730;28;20025;-58
2022/01/19 15:58:22;;;;;;;2.42;1.20;;;;;;;;;;5055956;28;20028;-57
2022/01/19 16:00:48;;;;;;;1.58;1.20;;;;;;;;;;5055559;28;20033;-58
2022/01/19 16:03:14;;;;;;;1.83;1.20;;;;;;;;;;5054635;28;20017;-58
2022/01/19 16:05:41;;;;;;;2.28;0.95;;;;;;;;;;5055459;28;20430;-58
2022/01/19 16:08:07;;;;;;;15.32;1.38;;;;;;;;;;5054729;28;20442;-57
2022/01/19 16:10:33;;;;;;;3.47;1.10;;;;;;;;;;5055434;28;20079;-58
2022/01/19 16:13:00;;;;;;;1.27;1.00;;;;;;;;;;5054947;28;20082;-58
2022/01/19 16:15:26;;;;;;;1.48;1.17;;;;;;;;;;5069706;28;20031;-57
2022/01/19 16:17:52;;;;;;;1.75;1.20;;;;;;;;;;5074677;28;20025;-57
2022/01/19 16:20:19;;;;;;;2.17;1.38;;;;;;;;;;5075320;28;20455;-57
2022/01/19 16:28:14;;;;;;;3.05;1.55;;;;;;;;;;5074507;28;20159;-57
2022/01/19 16:30:40;;;;;;;4.93;1.50;;;;;;;;;;5075239;28;20032;-48
2022/01/19 16:33:10;;;;;;;3.50;1.60;;;;;;;;;;5074325;28;20020;-53
2022/01/19 16:35:36;;;;;;;2.90;1.60;;;;;;;;;;5074599;28;20408;-51
2022/01/19 16:38:02;;;;;;;1.50;1.02;;;;;;;;;;5067115;28;20044;-56
2022/01/19 16:40:29;;;;;;;4.35;1.85;;;;;;;;;;5062444;28;20033;-58